createdAt,value
2023-04-05T00:02:21.270Z,-1.00
2023-04-05T00:04:52.171Z,-1.20
2023-04-05T00:07:21.449Z,-1.40
2023-04-05T00:09:48.854Z,-1.30
2023-04-05T00:12:16.096Z,-1.30
2023-04-05T00:14:42.782Z,-1.20
2023-04-05T00:17:11.159Z,-1.20
2023-04-05T00:19:39.450Z,-1.20
2023-04-05T00:22:06.256Z,-1.40
2023-04-05T00:24:33.959Z,-1.60
2023-04-05T00:27:01.415Z,-1.80
2023-04-05T00:29:28.308Z,-1.80
2023-04-05T00:31:56.247Z,-1.80
2023-04-05T00:34:23.002Z,-1.70
2023-04-05T00:36:49.828Z,-1.70
2023-04-05T00:39:16.575Z,-1.80
2023-04-05T00:41:46.291Z,-1.80
2023-04-05T00:44:14.788Z,-1.90
2023-04-05T00:46:42.052Z,-2.10
2023-04-05T00:49:09.556Z,-2.20
2023-04-05T00:51:38.020Z,-2.30
2023-04-05T00:54:05.240Z,-2.40
2023-04-05T00:56:32.831Z,-2.40
2023-04-05T00:58:59.680Z,-2.50
2023-04-05T01:01:28.078Z,-2.50
2023-04-05T01:04:03.512Z,-2.60
2023-04-05T01:06:33.938Z,-2.60
2023-04-05T01:09:10.067Z,-2.60
2023-04-05T01:11:40.399Z,-2.70
2023-04-05T01:14:07.182Z,-2.80
2023-04-05T01:16:33.917Z,-2.70
2023-04-05T01:19:00.676Z,-2.60
2023-04-05T01:21:39.241Z,-2.40
2023-04-05T01:24:27.022Z,-2.30
2023-04-05T01:27:19.403Z,-2.30
2023-04-05T01:30:04.358Z,-2.20
2023-04-05T01:32:49.596Z,-2.20
2023-04-05T01:35:29.357Z,-2.20
2023-04-05T01:38:00.802Z,-2.30
2023-04-05T01:40:28.442Z,-2.50
2023-04-05T01:42:55.241Z,-2.70
2023-04-05T01:45:22.167Z,-2.80
2023-04-05T01:47:48.973Z,-2.90
2023-04-05T01:50:15.930Z,-2.80
2023-04-05T01:52:42.608Z,-2.70
2023-04-05T01:55:09.428Z,-2.70
2023-04-05T01:57:36.105Z,-2.90
2023-04-05T02:00:03.008Z,-2.90
2023-04-05T02:02:29.889Z,-2.90
2023-04-05T02:04:56.645Z,-2.90
2023-04-05T02:07:24.377Z,-2.80
2023-04-05T02:09:51.245Z,-2.60
2023-04-05T02:12:18.014Z,-2.40
2023-04-05T02:14:44.881Z,-2.30
2023-04-05T02:17:11.504Z,-2.10
2023-04-05T02:19:40.950Z,-2.00
2023-04-05T02:22:08.337Z,-1.90
2023-04-05T02:24:35.303Z,-1.90
2023-04-05T02:27:02.129Z,-1.80
2023-04-05T02:29:28.959Z,-1.80
2023-04-05T02:31:55.986Z,-1.70
2023-04-05T02:34:22.785Z,-1.70
2023-04-05T02:36:53.160Z,-1.80
2023-04-05T02:39:20.717Z,-1.90
2023-04-05T02:41:47.387Z,-2.00
2023-04-05T02:44:14.239Z,-2.10
2023-04-05T02:46:41.034Z,-2.10
2023-04-05T02:49:07.915Z,-2.10
2023-04-05T02:51:34.714Z,-2.30
2023-04-05T02:54:04.450Z,-2.40
2023-04-05T02:56:31.461Z,-2.60
2023-04-05T02:58:58.195Z,-2.60
2023-04-05T03:01:25.502Z,-2.80
2023-04-05T03:03:52.486Z,-2.70
2023-04-05T03:06:20.761Z,-2.60
2023-04-05T03:08:49.161Z,-2.70
2023-04-05T03:11:16.094Z,-2.70
2023-04-05T03:13:42.781Z,-2.70
2023-04-05T03:16:09.499Z,-2.70
2023-04-05T03:18:36.463Z,-2.90
2023-04-05T03:21:04.427Z,-2.90
2023-04-05T03:23:32.099Z,-3.00
2023-04-05T03:26:02.990Z,-3.10
2023-04-05T03:28:32.305Z,-3.20
2023-04-05T03:30:59.195Z,-3.20
2023-04-05T03:33:26.001Z,-3.20
2023-04-05T03:35:53.111Z,-3.20
2023-04-05T03:38:19.851Z,-3.30
2023-04-05T03:40:46.728Z,-3.30
2023-04-05T03:43:13.846Z,-3.20
2023-04-05T03:45:40.837Z,-3.10
2023-04-05T03:48:07.797Z,-3.10
2023-04-05T03:50:34.496Z,-3.30
2023-04-05T03:53:01.504Z,-3.50
2023-04-05T03:55:28.265Z,-3.40
2023-04-05T03:57:55.015Z,-3.30
2023-04-05T04:00:23.866Z,-3.30
2023-04-05T04:02:52.618Z,-3.20
2023-04-05T04:05:21.404Z,-3.20
2023-04-05T04:07:48.424Z,-3.30
2023-04-05T04:10:19.616Z,-3.40
2023-04-05T04:12:46.333Z,-3.50
2023-04-05T04:15:13.219Z,-3.40
2023-04-05T04:17:40.091Z,-3.50
2023-04-05T04:20:11.282Z,-3.60
2023-04-05T04:22:40.374Z,-3.60
2023-04-05T04:25:10.585Z,-3.50
2023-04-05T04:27:39.705Z,-3.50
2023-04-05T04:30:10.589Z,-3.50
2023-04-05T04:32:58.861Z,-3.30
2023-04-05T04:35:27.832Z,-3.30
2023-04-05T04:37:59.879Z,-3.50
2023-04-05T04:40:40.291Z,-3.50
2023-04-05T04:43:27.224Z,-3.60
2023-04-05T04:45:56.959Z,-3.60
2023-04-05T04:48:23.790Z,-3.60
2023-04-05T04:50:50.819Z,-3.70
2023-04-05T04:53:18.801Z,-3.70
2023-04-05T04:55:45.826Z,-3.60
2023-04-05T04:58:13.678Z,-3.70
2023-04-05T05:00:44.710Z,-3.60
2023-04-05T05:03:12.258Z,-3.60
2023-04-05T05:05:46.915Z,-3.50
2023-04-05T05:08:14.296Z,-3.50
2023-04-05T05:10:41.939Z,-3.50
2023-04-05T05:13:09.541Z,-3.50
2023-04-05T05:15:36.654Z,-3.50
2023-04-05T05:18:03.379Z,-3.50
2023-04-05T05:20:30.234Z,-3.40
2023-04-05T05:22:58.453Z,-3.30
2023-04-05T05:25:25.132Z,-3.20
2023-04-05T05:27:51.780Z,-3.10
2023-04-05T05:30:19.067Z,-2.90
2023-04-05T05:32:45.817Z,-2.80
2023-04-05T05:35:12.559Z,-2.60
2023-04-05T05:37:39.673Z,-2.40
2023-04-05T05:40:07.115Z,-2.40
2023-04-05T05:42:34.344Z,-2.30
2023-04-05T05:45:05.879Z,-2.10
2023-04-05T05:47:32.953Z,-1.80
2023-04-05T05:49:59.788Z,-1.50
2023-04-05T05:52:26.787Z,-1.30
2023-04-05T05:54:53.496Z,-1.00
2023-04-05T05:57:20.465Z,-1.00
2023-04-05T05:59:47.222Z,-0.70
2023-04-05T06:02:14.526Z,-0.40
2023-04-05T06:04:41.854Z,-0.40
2023-04-05T06:07:08.757Z,-0.20
2023-04-05T06:09:35.704Z,0.30
2023-04-05T06:12:02.896Z,0.80
2023-04-05T06:14:29.969Z,1.10
2023-04-05T06:16:56.947Z,1.00
2023-04-05T06:19:23.905Z,1.30
2023-04-05T06:21:50.821Z,1.10
2023-04-05T06:24:17.584Z,1.20
2023-04-05T06:26:44.449Z,1.60
2023-04-05T06:29:12.128Z,1.30
2023-04-05T06:31:39.079Z,1.60
2023-04-05T06:34:05.882Z,1.60
2023-04-05T06:36:34.085Z,1.70
2023-04-05T06:39:00.999Z,1.70
2023-04-05T06:41:28.022Z,1.60
2023-04-05T06:43:56.286Z,1.60
2023-04-05T06:46:23.691Z,1.50
2023-04-05T06:48:52.224Z,1.30
2023-04-05T06:51:19.201Z,1.60
2023-04-05T06:53:46.096Z,1.60
2023-04-05T06:56:12.833Z,2.00
2023-04-05T06:58:39.530Z,1.60
2023-04-05T07:01:06.671Z,1.60
2023-04-05T07:03:34.037Z,1.60
2023-04-05T07:06:01.324Z,1.80
2023-04-05T07:08:29.306Z,1.90
2023-04-05T07:10:56.052Z,2.40
2023-04-05T07:13:24.507Z,2.60
2023-04-05T07:15:52.102Z,2.30
2023-04-05T07:18:19.247Z,2.60
2023-04-05T07:20:49.094Z,2.90
2023-04-05T07:23:16.606Z,3.20
2023-04-05T07:25:43.989Z,3.50
2023-04-05T07:28:10.854Z,3.40
2023-04-05T07:30:37.865Z,3.90
2023-04-05T07:33:05.496Z,3.60
2023-04-05T07:35:32.415Z,3.90
2023-04-05T07:37:59.123Z,4.10
2023-04-05T07:40:25.869Z,3.70
2023-04-05T07:42:52.593Z,3.00
2023-04-05T07:45:19.479Z,3.40
2023-04-05T07:47:46.489Z,3.60
2023-04-05T07:50:15.453Z,3.90
2023-04-05T07:52:42.917Z,4.10
2023-04-05T07:55:10.238Z,4.20
2023-04-05T07:57:37.417Z,4.80
2023-04-05T08:00:10.945Z,5.00
2023-04-05T08:02:37.808Z,5.40
2023-04-05T08:05:05.478Z,5.20
2023-04-05T08:07:32.317Z,5.60
2023-04-05T08:10:00.151Z,5.50
2023-04-05T08:12:27.374Z,5.80
2023-04-05T08:14:54.356Z,5.70
2023-04-05T08:17:21.272Z,6.10
2023-04-05T08:19:49.413Z,5.70
2023-04-05T08:22:17.779Z,5.40
2023-04-05T08:24:44.616Z,5.70
2023-04-05T08:27:11.669Z,5.50
2023-04-05T08:29:38.639Z,5.70
2023-04-05T08:32:05.462Z,6.00
2023-04-05T08:34:32.188Z,6.20
2023-04-05T08:37:00.072Z,6.50
2023-04-05T08:39:26.897Z,6.10
2023-04-05T08:42:08.202Z,6.10
2023-04-05T08:44:37.453Z,6.30
2023-04-05T08:47:04.353Z,6.20
2023-04-05T08:49:31.152Z,6.40
2023-04-05T08:52:01.494Z,6.40
2023-04-05T08:54:28.214Z,6.30
2023-04-05T08:56:58.130Z,5.30
2023-04-05T08:59:25.537Z,5.50
2023-04-05T09:01:53.936Z,6.00
2023-04-05T09:04:27.341Z,5.90
2023-04-05T09:06:57.578Z,6.40
2023-04-05T09:09:25.362Z,6.20
2023-04-05T09:11:52.799Z,5.40
2023-04-05T09:14:20.830Z,5.50
2023-04-05T09:16:47.597Z,5.30
2023-04-05T09:19:14.727Z,5.40
2023-04-05T09:22:04.503Z,5.80
2023-04-05T09:24:34.695Z,5.50
2023-04-05T09:27:08.082Z,5.30
2023-04-05T09:29:35.210Z,5.40
2023-04-05T09:32:03.749Z,5.50
2023-04-05T09:34:32.410Z,5.40
2023-04-05T09:37:00.827Z,5.10
2023-04-05T09:39:32.598Z,5.30
2023-04-05T09:42:26.097Z,5.90
2023-04-05T09:45:05.779Z,6.70
2023-04-05T09:47:36.799Z,7.20
2023-04-05T09:50:21.964Z,7.00
2023-04-05T09:52:49.374Z,6.80
2023-04-05T09:55:27.842Z,7.20
2023-04-05T09:57:54.616Z,7.00
2023-04-05T10:00:22.764Z,7.30
2023-04-05T10:02:53.977Z,7.50
2023-04-05T10:05:24.577Z,7.50
2023-04-05T10:07:52.357Z,7.30
2023-04-05T10:10:19.318Z,7.40
2023-04-05T10:12:48.018Z,7.60
2023-04-05T10:15:15.892Z,7.20
2023-04-05T10:17:49.786Z,6.70
2023-04-05T10:20:18.142Z,7.20
2023-04-05T10:22:59.048Z,7.50
2023-04-05T10:25:41.302Z,7.90
2023-04-05T10:28:15.625Z,7.60
2023-04-05T10:30:47.816Z,7.10
2023-04-05T10:33:24.826Z,7.00
2023-04-05T10:36:00.600Z,7.20
2023-04-05T10:38:29.170Z,6.70
2023-04-05T10:41:05.607Z,7.10
2023-04-05T10:43:34.376Z,7.50
2023-04-05T10:46:04.169Z,7.40
2023-04-05T10:48:37.205Z,7.70
2023-04-05T10:51:04.538Z,8.30
2023-04-05T10:53:35.128Z,8.40
2023-04-05T10:56:02.064Z,8.40
2023-04-05T10:58:29.911Z,8.50
2023-04-05T11:00:58.103Z,8.30
2023-04-05T11:03:51.979Z,8.00
2023-04-05T11:06:22.506Z,8.50
2023-04-05T11:08:52.842Z,8.40
2023-04-05T11:11:22.398Z,8.10
2023-04-05T11:13:56.257Z,8.00
2023-04-05T11:16:25.912Z,7.60
2023-04-05T11:18:53.818Z,7.30
2023-04-05T11:21:29.196Z,7.70
2023-04-05T11:24:07.181Z,8.10
2023-04-05T11:26:52.925Z,8.30
2023-04-05T11:29:39.595Z,8.30
2023-04-05T11:32:12.555Z,8.60
2023-04-05T11:34:42.839Z,8.80
2023-04-05T11:37:09.738Z,8.80
2023-04-05T11:39:39.079Z,8.90
2023-04-05T11:42:09.666Z,8.80
2023-04-05T11:44:44.034Z,8.90
2023-04-05T11:47:11.664Z,8.80
2023-04-05T11:49:39.657Z,8.90
2023-04-05T11:52:17.737Z,9.40
2023-04-05T11:54:49.685Z,9.70
2023-04-05T11:57:23.067Z,9.80
2023-04-05T11:59:51.914Z,9.90
2023-04-05T12:02:19.031Z,10.00
2023-04-05T12:04:53.389Z,9.70
2023-04-05T12:07:20.483Z,8.90
2023-04-05T12:10:17.326Z,9.60
2023-04-05T12:12:45.059Z,9.90
2023-04-05T12:15:14.469Z,9.40
2023-04-05T12:17:45.891Z,9.50
2023-04-05T12:20:14.736Z,10.10
2023-04-05T12:22:43.924Z,9.80
2023-04-05T12:25:11.467Z,9.30
2023-04-05T12:27:39.089Z,9.10
2023-04-05T12:30:17.420Z,9.40
2023-04-05T12:32:52.219Z,9.70
2023-04-05T12:35:32.176Z,9.50
2023-04-05T12:38:00.909Z,9.30
2023-04-05T12:40:30.190Z,9.30
2023-04-05T12:43:06.353Z,9.80
2023-04-05T12:45:40.558Z,10.40
2023-04-05T12:48:10.632Z,9.90
2023-04-05T12:50:46.394Z,9.10
2023-04-05T12:53:21.810Z,8.80
2023-04-05T12:55:52.571Z,8.60
2023-04-05T12:58:31.800Z,8.40
2023-04-05T13:00:58.937Z,8.30
2023-04-05T13:03:27.079Z,8.00
2023-04-05T13:05:54.149Z,8.10
2023-04-05T13:08:21.070Z,8.80
2023-04-05T13:10:49.104Z,9.50
2023-04-05T13:13:16.999Z,10.10
2023-04-05T13:15:44.806Z,10.30
2023-04-05T13:18:14.712Z,10.40
2023-04-05T13:20:45.598Z,9.80
2023-04-05T13:23:13.174Z,9.60
2023-04-05T13:25:45.494Z,8.90
2023-04-05T13:28:12.335Z,9.00
2023-04-05T13:30:39.238Z,8.90
2023-04-05T13:33:06.085Z,9.20
2023-04-05T13:35:33.220Z,9.60
2023-04-05T13:38:04.021Z,9.80
2023-04-05T13:40:32.226Z,10.00
2023-04-05T13:42:59.063Z,10.10
2023-04-05T13:45:25.822Z,9.90
2023-04-05T13:47:52.464Z,10.40
2023-04-05T13:50:19.301Z,10.90
2023-04-05T13:52:46.140Z,11.10
2023-04-05T13:55:15.280Z,11.00
2023-04-05T13:57:42.091Z,11.00
2023-04-05T14:00:09.735Z,10.80
2023-04-05T14:02:36.708Z,10.60
2023-04-05T14:05:03.784Z,10.00
2023-04-05T14:07:30.923Z,10.10
2023-04-05T14:09:57.641Z,9.80
2023-04-05T14:12:24.809Z,9.70
2023-04-05T14:14:51.749Z,10.00
2023-04-05T14:17:18.573Z,10.00
2023-04-05T14:19:45.365Z,10.40
2023-04-05T14:22:12.258Z,10.20
2023-04-05T14:24:38.961Z,10.60
2023-04-05T14:27:05.632Z,10.70
2023-04-05T14:29:33.117Z,10.70
2023-04-05T14:31:59.859Z,10.80
2023-04-05T14:34:26.573Z,10.80
2023-04-05T14:36:53.335Z,10.30
2023-04-05T14:39:20.069Z,10.20
2023-04-05T14:41:52.450Z,9.60
2023-04-05T14:44:19.186Z,9.30
2023-04-05T14:46:46.139Z,9.20
2023-04-05T14:49:12.797Z,9.20
2023-04-05T14:51:40.225Z,8.80
2023-04-05T14:54:07.024Z,8.90
2023-04-05T14:56:33.836Z,8.90
2023-04-05T14:59:00.925Z,8.80
2023-04-05T15:01:27.672Z,9.10
2023-04-05T15:03:54.783Z,9.50
2023-04-05T15:06:21.971Z,9.70
2023-04-05T15:08:48.712Z,9.60
2023-04-05T15:11:15.663Z,9.50
2023-04-05T15:13:42.306Z,9.30
2023-04-05T15:16:09.494Z,9.20
2023-04-05T15:18:36.212Z,9.50
2023-04-05T15:21:03.111Z,9.70
2023-04-05T15:23:30.989Z,9.60
2023-04-05T15:25:57.662Z,9.30
2023-04-05T15:28:24.387Z,9.20
2023-04-05T15:30:51.298Z,9.20
2023-04-05T15:33:18.153Z,8.90
2023-04-05T15:35:44.914Z,8.90
2023-04-05T15:38:11.718Z,8.30
2023-04-05T15:40:39.701Z,7.90
2023-04-05T15:43:06.396Z,7.70
2023-04-05T15:45:33.500Z,7.70
2023-04-05T15:48:00.342Z,7.60
2023-04-05T15:50:27.180Z,7.50
2023-04-05T15:52:53.882Z,7.20
2023-04-05T15:55:20.867Z,7.20
2023-04-05T15:57:49.587Z,7.40
2023-04-05T16:00:16.569Z,7.40
2023-04-05T16:02:43.473Z,7.20
2023-04-05T16:05:10.662Z,7.10
2023-04-05T16:07:37.503Z,7.00
2023-04-05T16:10:05.175Z,6.90
2023-04-05T16:12:31.897Z,7.00
2023-04-05T16:14:58.665Z,7.00
2023-04-05T16:17:25.899Z,7.00
2023-04-05T16:19:54.599Z,7.00
2023-04-05T16:22:22.646Z,7.00
2023-04-05T16:24:49.316Z,7.00
2023-04-05T16:27:16.632Z,6.90
2023-04-05T16:29:43.496Z,6.90
2023-04-05T16:32:10.555Z,6.80
2023-04-05T16:34:37.325Z,6.80
2023-04-05T16:37:04.003Z,6.70
2023-04-05T16:39:30.703Z,6.70
2023-04-05T16:41:57.566Z,6.60
2023-04-05T16:44:24.431Z,6.60
2023-04-05T16:46:52.373Z,6.60
2023-04-05T16:49:19.069Z,6.50
2023-04-05T16:51:45.844Z,6.40
2023-04-05T16:54:12.536Z,6.30
2023-04-05T16:56:39.263Z,6.10
2023-04-05T16:59:07.965Z,5.90
2023-04-05T17:01:35.539Z,5.90
2023-04-05T17:04:02.187Z,5.80
2023-04-05T17:06:28.993Z,5.90
2023-04-05T17:08:55.757Z,5.90
2023-04-05T17:11:22.673Z,5.80
2023-04-05T17:13:49.488Z,5.80
2023-04-05T17:16:16.756Z,5.80
2023-04-05T17:18:43.581Z,5.80
2023-04-05T17:21:12.359Z,5.70
2023-04-05T17:23:39.788Z,5.60
2023-04-05T17:26:06.469Z,5.60
2023-04-05T17:28:34.699Z,5.60
2023-04-05T17:31:02.142Z,5.50
2023-04-05T17:33:29.131Z,5.40
2023-04-05T17:35:55.993Z,5.40
2023-04-05T17:38:22.787Z,5.30
2023-04-05T17:40:49.518Z,5.30
2023-04-05T17:43:16.392Z,5.20
2023-04-05T17:45:43.152Z,5.10
2023-04-05T17:48:09.978Z,5.10
2023-04-05T17:50:37.381Z,5.10
2023-04-05T17:53:04.291Z,5.00
2023-04-05T17:55:33.630Z,4.90
2023-04-05T17:58:00.394Z,4.90
2023-04-05T18:00:27.079Z,4.80
2023-04-05T18:02:54.011Z,4.70
2023-04-05T18:05:20.804Z,4.70
2023-04-05T18:07:47.682Z,4.60
2023-04-05T18:10:14.377Z,4.50
2023-04-05T18:12:41.448Z,4.50
2023-04-05T18:15:08.671Z,4.40
2023-04-05T18:17:35.614Z,4.40
2023-04-05T18:20:02.593Z,4.30
2023-04-05T18:22:32.437Z,4.30
2023-04-05T18:24:59.197Z,4.30
2023-04-05T18:27:26.196Z,4.30
2023-04-05T18:29:52.831Z,4.20
2023-04-05T18:32:19.570Z,4.20
2023-04-05T18:34:46.349Z,4.20
2023-04-05T18:37:13.014Z,4.20
2023-04-05T18:39:39.681Z,4.20
2023-04-05T18:42:06.393Z,4.10
2023-04-05T18:44:33.135Z,4.00
2023-04-05T18:47:01.040Z,3.90
2023-04-05T18:49:27.916Z,3.80
2023-04-05T18:51:55.829Z,3.80
2023-04-05T18:54:22.798Z,3.80
2023-04-05T18:56:49.565Z,3.80
2023-04-05T18:59:17.385Z,3.90
2023-04-05T19:01:44.409Z,3.90
2023-04-05T19:04:11.253Z,3.90
2023-04-05T19:06:37.880Z,3.80
2023-04-05T19:09:04.666Z,3.70
2023-04-05T19:11:31.559Z,3.70
2023-04-05T19:14:00.407Z,3.60
2023-04-05T19:16:27.123Z,3.60
2023-04-05T19:18:53.920Z,3.60
2023-04-05T19:21:20.590Z,3.60
2023-04-05T19:23:47.312Z,3.50
2023-04-05T19:26:13.929Z,3.50
2023-04-05T19:28:40.715Z,3.40
2023-04-05T19:31:09.222Z,3.40
2023-04-05T19:33:36.149Z,3.30
2023-04-05T19:36:02.887Z,3.20
2023-04-05T19:38:29.658Z,3.20
2023-04-05T19:40:56.512Z,3.10
2023-04-05T19:43:24.411Z,3.10
2023-04-05T19:45:57.305Z,3.10
2023-04-05T19:48:35.978Z,3.00
2023-04-05T19:51:07.506Z,3.00
2023-04-05T19:53:41.717Z,2.80
2023-04-05T19:56:17.743Z,2.70
2023-04-05T19:58:44.967Z,2.70
2023-04-05T20:01:11.772Z,2.70
2023-04-05T20:03:42.365Z,2.60
2023-04-05T20:06:12.821Z,2.60
2023-04-05T20:08:41.124Z,2.70
2023-04-05T20:11:11.773Z,2.70
2023-04-05T20:13:44.967Z,2.70
2023-04-05T20:16:13.174Z,2.70
2023-04-05T20:18:40.531Z,2.70
2023-04-05T20:21:07.229Z,2.70
2023-04-05T20:23:36.728Z,2.60
2023-04-05T20:26:08.746Z,2.40
2023-04-05T20:28:38.705Z,2.10
2023-04-05T20:31:10.141Z,2.00
2023-04-05T20:33:39.660Z,2.00
2023-04-05T20:36:11.218Z,2.00
2023-04-05T20:38:42.870Z,2.00
2023-04-05T20:41:11.620Z,2.00
2023-04-05T20:43:39.799Z,1.90
2023-04-05T20:46:07.950Z,1.80
2023-04-05T20:48:36.151Z,1.90
2023-04-05T20:51:04.822Z,2.00
2023-04-05T20:53:31.658Z,2.00
2023-04-05T20:55:59.402Z,2.00
2023-04-05T20:58:27.570Z,2.00
2023-04-05T21:00:55.109Z,1.80
2023-04-05T21:03:22.002Z,1.60
2023-04-05T21:05:48.893Z,1.40
2023-04-05T21:08:16.290Z,1.50
2023-04-05T21:10:43.051Z,1.50
2023-04-05T21:13:09.713Z,1.50
2023-04-05T21:15:36.701Z,1.40
2023-04-05T21:18:05.766Z,1.50
2023-04-05T21:20:32.588Z,1.40
2023-04-05T21:22:59.557Z,1.40
2023-04-05T21:25:26.755Z,1.40
2023-04-05T21:27:53.476Z,1.50
2023-04-05T21:30:20.274Z,1.60
2023-04-05T21:32:46.989Z,1.60
2023-04-05T21:35:13.655Z,1.70
2023-04-05T21:37:40.353Z,1.80
2023-04-05T21:40:07.994Z,1.90
2023-04-05T21:42:34.703Z,1.90
2023-04-05T21:45:01.560Z,1.70
2023-04-05T21:47:28.315Z,1.70
2023-04-05T21:49:55.039Z,1.60
2023-04-05T21:52:21.678Z,1.60
2023-04-05T21:54:48.346Z,1.40
2023-04-05T21:57:15.084Z,1.10
2023-04-05T21:59:42.026Z,1.10
2023-04-05T22:02:08.962Z,1.10
2023-04-05T22:04:35.803Z,1.10
2023-04-05T22:07:02.480Z,0.90
2023-04-05T22:09:29.151Z,0.80
2023-04-05T22:11:56.997Z,0.70
2023-04-05T22:14:23.835Z,0.70
2023-04-05T22:16:50.605Z,0.60
2023-04-05T22:19:17.427Z,0.40
2023-04-05T22:21:44.196Z,0.30
2023-04-05T22:24:11.328Z,0.10
2023-04-05T22:26:41.987Z,0.10
2023-04-05T22:29:09.074Z,0.10
2023-04-05T22:31:36.085Z,0.10
2023-04-05T22:34:02.846Z,0.10
2023-04-05T22:36:29.530Z,0.10
2023-04-05T22:38:56.261Z,0.20
2023-04-05T22:41:22.942Z,0.40
2023-04-05T22:43:49.569Z,0.50
2023-04-05T22:46:16.408Z,0.50
2023-04-05T22:48:43.950Z,0.60
2023-04-05T22:51:11.058Z,0.60
2023-04-05T22:53:37.762Z,0.50
2023-04-05T22:56:04.554Z,0.60
2023-04-05T22:58:32.746Z,0.70
2023-04-05T23:01:00.062Z,0.70
2023-04-05T23:03:26.749Z,0.70
2023-04-05T23:05:54.065Z,0.70
2023-04-05T23:08:21.134Z,0.80
2023-04-05T23:10:48.306Z,0.70
2023-04-05T23:13:15.353Z,0.60
2023-04-05T23:15:42.157Z,0.60
2023-04-05T23:18:08.998Z,0.50
2023-04-05T23:20:36.012Z,0.50
2023-04-05T23:23:02.659Z,0.40
2023-04-05T23:25:29.326Z,0.30
2023-04-05T23:27:56.059Z,0.20
2023-04-05T23:30:22.748Z,0.10
2023-04-05T23:32:50.073Z,-0.20
2023-04-05T23:35:17.063Z,-0.30
2023-04-05T23:37:43.768Z,-0.40
2023-04-05T23:40:11.165Z,-0.50
2023-04-05T23:42:37.851Z,-0.60
2023-04-05T23:45:08.458Z,-0.50
2023-04-05T23:47:36.687Z,-0.50
2023-04-05T23:50:03.723Z,-0.80
2023-04-05T23:52:30.485Z,-0.60
2023-04-05T23:54:57.192Z,-0.50
2023-04-05T23:57:23.862Z,-0.30
2023-04-05T23:59:52.013Z,-0.30
